createdAt,value
2022-08-21T00:02:20.418Z,19.08
2022-08-21T00:04:57.678Z,19.13
2022-08-21T00:07:25.428Z,18.60
2022-08-21T00:09:52.850Z,18.38
2022-08-21T00:12:20.079Z,19.38
2022-08-21T00:14:47.209Z,18.50
2022-08-21T00:17:14.831Z,18.60
2022-08-21T00:19:41.985Z,19.17
2022-08-21T00:22:13.827Z,18.48
2022-08-21T00:24:41.477Z,18.00
2022-08-21T00:27:08.842Z,17.63
2022-08-21T00:29:35.969Z,17.35
2022-08-21T00:32:03.168Z,17.83
2022-08-21T00:34:30.298Z,17.10
2022-08-21T00:36:57.493Z,16.88
2022-08-21T00:39:24.664Z,15.90
2022-08-21T00:41:51.991Z,15.20
2022-08-21T00:44:19.281Z,17.20
2022-08-21T00:46:47.098Z,15.50
2022-08-21T00:49:14.554Z,17.15
2022-08-21T00:51:50.829Z,16.00
2022-08-21T00:54:19.415Z,15.73
2022-08-21T00:56:51.754Z,16.23
2022-08-21T00:59:20.327Z,16.70
2022-08-21T01:01:47.950Z,16.50
2022-08-21T01:04:15.920Z,15.52
2022-08-21T01:06:43.055Z,15.32
2022-08-21T01:09:10.262Z,16.27
2022-08-21T01:11:38.117Z,16.63
2022-08-21T01:14:05.411Z,15.32
2022-08-21T01:16:32.874Z,15.45
2022-08-21T01:19:00.202Z,16.50
2022-08-21T01:21:28.738Z,15.35
2022-08-21T01:23:56.691Z,15.73
2022-08-21T01:26:31.245Z,15.38
2022-08-21T01:29:24.746Z,16.13
2022-08-21T01:31:52.223Z,14.90
2022-08-21T01:34:19.606Z,14.63
2022-08-21T01:36:48.243Z,15.10
2022-08-21T01:39:16.179Z,14.75
2022-08-21T01:41:43.533Z,13.93
2022-08-21T01:44:10.807Z,13.82
2022-08-21T01:46:38.162Z,14.93
2022-08-21T01:49:05.866Z,13.90
2022-08-21T01:51:33.239Z,14.02
2022-08-21T01:54:00.558Z,14.23
2022-08-21T01:56:33.716Z,16.67
2022-08-21T01:59:00.886Z,15.65
2022-08-21T02:01:28.289Z,14.48
2022-08-21T02:03:56.777Z,14.68
2022-08-21T02:06:27.573Z,14.10
2022-08-21T02:08:57.705Z,13.70
2022-08-21T02:11:28.724Z,15.23
2022-08-21T02:13:57.217Z,14.90
2022-08-21T02:16:24.898Z,14.10
2022-08-21T02:18:53.400Z,16.25
2022-08-21T02:21:21.088Z,15.88
2022-08-21T02:23:49.118Z,16.10
2022-08-21T02:26:17.052Z,15.32
2022-08-21T02:28:45.736Z,16.52
2022-08-21T02:31:17.479Z,15.45
2022-08-21T02:33:49.539Z,15.68
2022-08-21T02:36:20.188Z,15.50
2022-08-21T02:38:52.895Z,16.98
2022-08-21T02:41:23.253Z,17.90
2022-08-21T02:43:50.415Z,16.95
2022-08-21T02:46:18.615Z,15.38
2022-08-21T02:48:46.027Z,15.93
2022-08-21T02:51:14.847Z,16.02
2022-08-21T02:53:42.454Z,14.90
2022-08-21T02:56:11.533Z,15.05
2022-08-21T02:58:42.492Z,14.63
2022-08-21T03:01:10.503Z,15.50
2022-08-21T03:03:39.139Z,14.95
2022-08-21T03:06:06.834Z,15.20
2022-08-21T03:08:33.956Z,15.07
2022-08-21T03:11:01.995Z,13.60
2022-08-21T03:13:29.540Z,13.27
2022-08-21T03:15:57.345Z,14.77
2022-08-21T03:18:25.462Z,14.98
2022-08-21T03:20:52.701Z,15.57
2022-08-21T03:23:19.975Z,16.20
2022-08-21T03:25:47.709Z,14.00
2022-08-21T03:28:16.602Z,13.68
2022-08-21T03:30:44.158Z,14.23
2022-08-21T03:33:13.016Z,14.05
2022-08-21T03:35:43.435Z,13.90
2022-08-21T03:38:11.052Z,14.98
2022-08-21T03:40:38.215Z,14.25
2022-08-21T03:43:05.706Z,14.40
2022-08-21T03:45:33.435Z,15.35
2022-08-21T03:48:01.727Z,14.30
2022-08-21T03:50:31.108Z,14.52
2022-08-21T03:52:58.476Z,14.77
2022-08-21T03:55:26.518Z,15.15
2022-08-21T03:57:53.765Z,16.30
2022-08-21T04:00:21.333Z,15.15
2022-08-21T04:02:48.655Z,14.80
2022-08-21T04:05:27.949Z,16.02
2022-08-21T04:08:06.020Z,15.32
2022-08-21T04:10:35.319Z,16.13
2022-08-21T04:13:02.665Z,15.25
2022-08-21T04:15:29.730Z,14.52
2022-08-21T04:17:57.006Z,15.05
2022-08-21T04:20:24.174Z,14.68
2022-08-21T04:22:51.976Z,14.52
2022-08-21T04:25:19.968Z,15.23
2022-08-21T04:27:47.073Z,14.40
2022-08-21T04:30:15.713Z,14.45
2022-08-21T04:32:47.576Z,14.23
2022-08-21T04:35:17.631Z,14.43
2022-08-21T04:37:44.792Z,14.77
2022-08-21T04:40:12.952Z,14.38
2022-08-21T04:42:47.767Z,14.32
2022-08-21T04:45:20.868Z,14.38
2022-08-21T04:47:52.862Z,15.75
2022-08-21T04:50:20.930Z,13.57
2022-08-21T04:52:48.396Z,13.70
2022-08-21T04:55:15.914Z,14.55
2022-08-21T04:57:48.598Z,13.38
2022-08-21T05:00:16.505Z,14.20
2022-08-21T05:02:43.662Z,14.13
2022-08-21T05:05:10.937Z,14.13
2022-08-21T05:07:41.892Z,14.50
2022-08-21T05:10:10.414Z,14.38
2022-08-21T05:12:40.484Z,13.75
2022-08-21T05:15:07.793Z,14.05
2022-08-21T05:17:40.355Z,13.73
2022-08-21T05:20:07.777Z,13.60
2022-08-21T05:22:34.890Z,13.15
2022-08-21T05:25:01.980Z,14.90
2022-08-21T05:27:30.706Z,13.70
2022-08-21T05:29:58.905Z,14.20
2022-08-21T05:32:26.371Z,13.93
2022-08-21T05:34:53.456Z,14.40
2022-08-21T05:37:20.568Z,12.57
2022-08-21T05:40:21.083Z,12.55
2022-08-21T05:42:35.207Z,13.43
2022-08-21T05:45:02.307Z,13.45
2022-08-21T05:47:29.446Z,13.90
2022-08-21T05:49:56.543Z,13.07
2022-08-21T05:52:23.922Z,12.77
2022-08-21T05:54:51.387Z,12.48
2022-08-21T05:57:18.599Z,13.45
2022-08-21T05:59:46.134Z,12.80
2022-08-21T06:02:13.261Z,11.80
2022-08-21T06:04:40.961Z,12.80
2022-08-21T06:07:09.357Z,12.55
2022-08-21T06:09:36.991Z,11.77
2022-08-21T06:12:11.544Z,11.77
2022-08-21T06:14:40.369Z,11.05
2022-08-21T06:17:11.990Z,10.93
2022-08-21T06:19:39.273Z,11.50
2022-08-21T06:22:06.564Z,10.65
2022-08-21T06:24:33.722Z,9.60
2022-08-21T06:27:06.055Z,9.27
2022-08-21T06:29:44.714Z,7.95
2022-08-21T06:32:12.628Z,7.00
2022-08-21T06:34:40.616Z,6.60
2022-08-21T06:37:07.906Z,8.73
2022-08-21T06:39:35.202Z,7.13
2022-08-21T06:42:02.803Z,6.93
2022-08-21T06:44:31.701Z,6.93
2022-08-21T06:46:58.865Z,7.85
2022-08-21T06:49:26.123Z,6.63
2022-08-21T06:51:53.345Z,6.18
2022-08-21T06:54:20.430Z,5.57
2022-08-21T06:56:48.238Z,6.28
2022-08-21T06:59:15.327Z,6.60
2022-08-21T07:01:42.645Z,5.95
2022-08-21T07:04:09.823Z,6.72
2022-08-21T07:06:36.968Z,6.25
2022-08-21T07:09:04.509Z,4.93
2022-08-21T07:11:31.602Z,7.03
2022-08-21T07:14:06.558Z,6.28
2022-08-21T07:16:33.695Z,6.50
2022-08-21T07:19:00.853Z,7.60
2022-08-21T07:21:27.954Z,8.00
2022-08-21T07:23:55.090Z,9.07
2022-08-21T07:26:23.303Z,9.48
2022-08-21T07:28:50.530Z,9.52
2022-08-21T07:31:19.633Z,10.38
2022-08-21T07:33:46.920Z,10.00
2022-08-21T07:36:14.350Z,10.32
2022-08-21T07:38:41.739Z,11.77
2022-08-21T07:41:14.828Z,11.40
2022-08-21T07:43:46.065Z,10.10
2022-08-21T07:46:13.789Z,10.80
2022-08-21T07:48:41.316Z,10.23
2022-08-21T07:51:09.906Z,11.32
2022-08-21T07:53:40.076Z,11.07
2022-08-21T07:56:09.047Z,11.27
2022-08-21T07:58:36.181Z,10.77
2022-08-21T08:01:03.456Z,8.27
2022-08-21T08:03:30.576Z,9.30
2022-08-21T08:05:58.772Z,8.68
2022-08-21T08:08:25.955Z,9.10
2022-08-21T08:10:54.647Z,8.23
2022-08-21T08:13:21.709Z,8.40
2022-08-21T08:15:49.225Z,8.38
2022-08-21T08:18:16.472Z,9.27
2022-08-21T08:20:43.698Z,9.50
2022-08-21T08:23:14.532Z,7.97
2022-08-21T08:25:41.675Z,7.85
2022-08-21T08:28:17.248Z,7.93
2022-08-21T08:30:46.072Z,8.20
2022-08-21T08:33:13.356Z,9.65
2022-08-21T08:35:41.293Z,8.68
2022-08-21T08:38:09.506Z,9.73
2022-08-21T08:40:43.124Z,7.75
2022-08-21T08:45:39.475Z,7.63
2022-08-21T08:48:14.040Z,8.45
2022-08-21T08:50:56.022Z,8.30
2022-08-21T08:53:30.170Z,6.82
2022-08-21T08:55:57.409Z,7.25
2022-08-21T08:58:25.967Z,6.05
2022-08-21T09:00:54.480Z,5.65
2022-08-21T09:03:22.560Z,5.22
2022-08-21T09:05:55.863Z,6.20
2022-08-21T09:08:39.238Z,4.85
2022-08-21T09:11:11.638Z,5.35
2022-08-21T09:13:45.037Z,4.15
2022-08-21T09:18:57.938Z,4.75
2022-08-21T09:21:30.982Z,3.80
2022-08-21T09:24:18.732Z,4.70
2022-08-21T09:26:58.590Z,4.70
2022-08-21T09:29:30.534Z,4.80
2022-08-21T09:31:57.715Z,4.20
2022-08-21T09:34:29.991Z,4.97
2022-08-21T09:36:57.333Z,4.35
2022-08-21T09:39:29.581Z,4.55
2022-08-21T09:42:00.526Z,4.53
2022-08-21T09:44:32.745Z,3.83
2022-08-21T09:47:00.181Z,3.80
2022-08-21T09:49:35.628Z,3.65
2022-08-21T09:52:03.927Z,3.67
2022-08-21T09:54:36.157Z,3.70
2022-08-21T09:57:32.710Z,3.78
2022-08-21T10:00:10.076Z,3.22
2022-08-21T10:02:37.625Z,3.10
2022-08-21T10:05:17.888Z,4.05
2022-08-21T10:07:45.190Z,3.60
2022-08-21T10:10:18.366Z,3.58
2022-08-21T10:12:54.718Z,2.60
2022-08-21T10:15:24.673Z,2.53
2022-08-21T10:17:54.819Z,3.10
2022-08-21T10:20:38.784Z,2.75
2022-08-21T10:23:15.187Z,3.33
2022-08-21T10:26:05.409Z,3.00
2022-08-21T10:28:50.047Z,3.25
2022-08-21T10:31:25.148Z,3.25
2022-08-21T10:34:07.608Z,2.55
2022-08-21T10:36:36.692Z,2.95
2022-08-21T10:39:36.042Z,2.50
2022-08-21T10:42:13.292Z,3.70
2022-08-21T10:44:49.053Z,2.78
2022-08-21T10:47:16.134Z,4.32
2022-08-21T10:49:43.202Z,2.20
2022-08-21T10:52:22.968Z,2.30
2022-08-21T10:55:04.480Z,2.97
2022-08-21T10:57:38.146Z,2.90
2022-08-21T11:00:11.974Z,3.17
2022-08-21T11:02:42.783Z,2.38
2022-08-21T11:05:21.989Z,2.88
2022-08-21T11:07:52.090Z,2.90
2022-08-21T11:10:24.582Z,2.60
2022-08-21T11:13:04.068Z,2.60
2022-08-21T11:15:31.251Z,2.30
2022-08-21T11:18:07.196Z,2.83
2022-08-21T11:20:46.997Z,2.58
2022-08-21T11:23:20.711Z,2.55
2022-08-21T11:25:51.211Z,2.30
2022-08-21T11:28:26.202Z,2.47
2022-08-21T11:31:06.713Z,2.30
2022-08-21T11:33:33.930Z,2.58
2022-08-21T11:36:05.313Z,2.78
2022-08-21T11:38:39.670Z,2.70
2022-08-21T11:41:25.764Z,2.13
2022-08-21T11:44:01.038Z,2.17
2022-08-21T11:46:30.970Z,2.30
2022-08-21T11:49:13.443Z,2.15
2022-08-21T11:51:43.004Z,2.35
2022-08-21T11:54:13.821Z,2.10
2022-08-21T11:56:47.873Z,2.47
2022-08-21T11:59:23.938Z,2.40
2022-08-21T12:01:53.189Z,2.40
2022-08-21T12:04:26.195Z,2.72
2022-08-21T12:06:53.425Z,2.53
2022-08-21T12:09:26.373Z,2.92
2022-08-21T12:12:07.846Z,2.83
2022-08-21T12:14:42.942Z,2.72
2022-08-21T12:17:12.530Z,2.88
2022-08-21T12:19:40.065Z,2.90
2022-08-21T12:22:07.531Z,2.83
2022-08-21T12:24:39.528Z,2.97
2022-08-21T12:27:15.824Z,2.85
2022-08-21T12:29:47.593Z,3.45
2022-08-21T12:32:14.672Z,2.83
2022-08-21T12:34:41.708Z,3.03
2022-08-21T12:37:16.805Z,3.50
2022-08-21T12:39:46.252Z,3.30
2022-08-21T12:42:18.118Z,2.90
2022-08-21T12:44:47.861Z,3.38
2022-08-21T12:47:23.413Z,3.33
2022-08-21T12:49:54.304Z,2.95
2022-08-21T12:52:26.646Z,2.70
2022-08-21T12:54:53.768Z,2.67
2022-08-21T12:57:25.784Z,2.60
2022-08-21T12:59:57.123Z,3.00
2022-08-21T13:02:26.497Z,2.80
2022-08-21T13:04:56.169Z,2.40
2022-08-21T13:07:28.426Z,3.00
2022-08-21T13:10:15.752Z,2.17
2022-08-21T13:12:43.372Z,2.30
2022-08-21T13:15:10.898Z,2.70
2022-08-21T13:17:40.223Z,2.63
2022-08-21T13:20:11.574Z,2.65
2022-08-21T13:22:44.428Z,2.58
2022-08-21T13:25:13.379Z,2.60
2022-08-21T13:27:40.722Z,2.38
2022-08-21T13:30:10.862Z,2.50
2022-08-21T13:32:41.714Z,2.53
2022-08-21T13:35:10.950Z,2.42
2022-08-21T13:37:40.503Z,2.42
2022-08-21T13:40:09.154Z,2.40
2022-08-21T13:42:36.317Z,2.47
2022-08-21T13:45:03.455Z,2.35
2022-08-21T13:47:30.662Z,2.40
2022-08-21T13:49:59.325Z,2.17
2022-08-21T13:52:28.183Z,2.53
2022-08-21T13:54:57.293Z,2.13
2022-08-21T13:57:32.428Z,2.22
2022-08-21T14:00:12.782Z,2.60
2022-08-21T14:02:41.624Z,2.22
2022-08-21T14:05:09.534Z,2.22
2022-08-21T14:07:39.059Z,2.40
2022-08-21T14:10:14.576Z,2.50
2022-08-21T14:12:50.609Z,2.17
2022-08-21T14:15:19.440Z,1.92
2022-08-21T14:17:48.065Z,2.05
2022-08-21T14:20:33.744Z,2.40
2022-08-21T14:23:01.210Z,2.35
2022-08-21T14:25:33.632Z,2.30
2022-08-21T14:28:03.775Z,2.10
2022-08-21T14:30:39.099Z,2.08
2022-08-21T14:33:11.202Z,2.15
2022-08-21T14:35:38.437Z,2.35
2022-08-21T14:38:13.638Z,2.30
2022-08-21T14:40:41.453Z,2.05
2022-08-21T14:43:09.291Z,2.40
2022-08-21T14:45:37.800Z,2.60
2022-08-21T14:48:05.597Z,2.20
2022-08-21T14:50:32.726Z,3.88
2022-08-21T14:53:00.024Z,2.30
2022-08-21T14:55:27.625Z,2.30
2022-08-21T14:57:56.819Z,2.03
2022-08-21T15:00:27.095Z,2.05
2022-08-21T15:03:03.293Z,2.88
2022-08-21T15:05:33.805Z,1.92
2022-08-21T15:08:01.326Z,2.08
2022-08-21T15:10:28.558Z,2.33
2022-08-21T15:12:55.676Z,2.10
2022-08-21T15:15:22.812Z,2.10
2022-08-21T15:17:50.017Z,1.98
2022-08-21T15:20:17.245Z,1.98
2022-08-21T15:22:47.831Z,2.00
2022-08-21T15:25:15.528Z,2.10
2022-08-21T15:27:42.914Z,1.92
2022-08-21T15:30:10.694Z,1.90
2022-08-21T15:32:39.076Z,1.98
2022-08-21T15:35:06.776Z,1.90
2022-08-21T15:37:34.089Z,2.30
2022-08-21T15:40:01.293Z,1.90
2022-08-21T15:42:28.617Z,1.90
2022-08-21T15:44:56.368Z,2.08
2022-08-21T15:47:26.683Z,2.53
2022-08-21T15:49:53.875Z,2.13
2022-08-21T15:52:22.109Z,2.00
2022-08-21T15:54:49.483Z,2.00
2022-08-21T15:57:18.656Z,2.20
2022-08-21T15:59:47.688Z,2.17
2022-08-21T16:02:26.119Z,1.55
2022-08-21T16:04:53.391Z,1.50
2022-08-21T16:07:20.584Z,1.77
2022-08-21T16:09:47.735Z,1.80
2022-08-21T16:12:29.059Z,1.80
2022-08-21T16:14:56.193Z,1.90
2022-08-21T16:17:26.582Z,2.03
2022-08-21T16:19:53.691Z,1.80
2022-08-21T16:22:20.907Z,1.85
2022-08-21T16:24:48.054Z,1.90
2022-08-21T16:27:17.461Z,1.50
2022-08-21T16:29:46.743Z,1.80
2022-08-21T16:32:14.030Z,1.75
2022-08-21T16:34:42.755Z,2.20
2022-08-21T16:37:09.976Z,1.52
2022-08-21T16:39:37.216Z,1.80
2022-08-21T16:42:04.632Z,1.80
2022-08-21T16:44:31.760Z,1.90
2022-08-21T16:46:58.894Z,1.90
2022-08-21T16:49:25.968Z,1.70
2022-08-21T16:51:53.165Z,1.42
2022-08-21T16:54:20.311Z,1.90
2022-08-21T16:56:48.100Z,2.00
2022-08-21T16:59:17.557Z,2.03
2022-08-21T17:01:45.393Z,1.95
2022-08-21T17:04:12.528Z,1.85
2022-08-21T17:06:39.738Z,2.20
2022-08-21T17:09:06.987Z,1.92
2022-08-21T17:11:44.786Z,1.70
2022-08-21T17:14:16.671Z,1.73
2022-08-21T17:16:46.307Z,1.95
2022-08-21T17:19:14.139Z,1.80
2022-08-21T17:21:41.333Z,1.90
2022-08-21T17:24:08.651Z,1.90
2022-08-21T17:26:36.382Z,1.90
2022-08-21T17:29:03.712Z,1.90
2022-08-21T17:31:31.556Z,2.40
2022-08-21T17:33:59.036Z,2.35
2022-08-21T17:36:27.961Z,2.42
2022-08-21T17:38:55.380Z,2.35
2022-08-21T17:41:23.056Z,2.00
2022-08-21T17:43:51.542Z,2.35
2022-08-21T17:46:27.701Z,2.20
2022-08-21T17:48:55.507Z,2.50
2022-08-21T17:51:22.770Z,2.35
2022-08-21T17:53:50.061Z,2.35
2022-08-21T17:56:18.605Z,2.47
2022-08-21T17:58:47.959Z,2.58
2022-08-21T18:01:15.340Z,2.53
2022-08-21T18:03:42.453Z,3.22
2022-08-21T18:06:11.453Z,2.70
2022-08-21T18:08:40.405Z,2.90
2022-08-21T18:11:09.579Z,2.80
2022-08-21T18:13:39.964Z,2.47
2022-08-21T18:16:07.641Z,2.97
2022-08-21T18:18:40.466Z,3.08
2022-08-21T18:21:07.797Z,2.90
2022-08-21T18:23:44.263Z,3.15
2022-08-21T18:26:13.309Z,2.88
2022-08-21T18:28:40.700Z,3.28
2022-08-21T18:31:09.031Z,3.13
2022-08-21T18:33:37.318Z,3.08
2022-08-21T18:36:04.763Z,3.65
2022-08-21T18:38:32.092Z,3.30
2022-08-21T18:40:59.808Z,2.83
2022-08-21T18:43:27.324Z,3.67
2022-08-21T18:45:54.608Z,3.30
2022-08-21T18:48:21.795Z,3.38
2022-08-21T18:50:56.357Z,3.47
2022-08-21T18:53:27.532Z,3.30
2022-08-21T18:55:57.761Z,3.63
2022-08-21T18:58:25.091Z,3.67
2022-08-21T19:00:52.677Z,3.67
2022-08-21T19:03:21.913Z,3.58
2022-08-21T19:05:51.591Z,3.72
2022-08-21T19:08:19.674Z,3.67
2022-08-21T19:10:48.028Z,3.90
2022-08-21T19:13:16.534Z,3.67
2022-08-21T19:15:46.945Z,3.70
2022-08-21T19:18:15.061Z,3.55
2022-08-21T19:20:42.974Z,3.47
2022-08-21T19:23:12.123Z,4.00
2022-08-21T19:25:41.502Z,4.60
2022-08-21T19:31:04.688Z,3.95
2022-08-21T19:33:37.574Z,4.07
2022-08-21T19:36:07.371Z,4.65
2022-08-21T19:38:34.820Z,4.63
2022-08-21T19:41:02.209Z,4.50
2022-08-21T19:43:30.635Z,4.22
2022-08-21T19:45:58.858Z,4.43
2022-08-21T19:48:26.357Z,4.65
2022-08-21T19:50:53.748Z,4.80
2022-08-21T19:53:21.180Z,4.28
2022-08-21T19:55:48.616Z,4.15
2022-08-21T19:58:22.947Z,4.30
2022-08-21T20:00:50.329Z,3.97
2022-08-21T20:03:18.374Z,4.50
2022-08-21T20:05:48.400Z,5.30
2022-08-21T20:08:20.489Z,4.72
2022-08-21T20:10:49.883Z,5.47
2022-08-21T20:13:17.787Z,4.60
2022-08-21T20:15:45.923Z,4.88
2022-08-21T20:18:13.762Z,4.75
2022-08-21T20:20:41.037Z,5.25
2022-08-21T20:23:10.656Z,4.55
2022-08-21T20:25:38.787Z,5.43
2022-08-21T20:28:06.785Z,5.07
2022-08-21T20:30:35.264Z,5.05
2022-08-21T20:33:02.494Z,5.25
2022-08-21T20:35:29.734Z,5.30
2022-08-21T20:37:58.515Z,5.38
2022-08-21T20:40:29.184Z,5.60
2022-08-21T20:42:59.895Z,4.78
2022-08-21T20:45:28.651Z,5.72
2022-08-21T20:47:59.442Z,6.22
2022-08-21T20:50:27.535Z,6.15
2022-08-21T20:52:58.339Z,6.05
2022-08-21T20:55:29.064Z,5.60
2022-08-21T20:58:00.441Z,5.97
2022-08-21T21:00:28.199Z,6.45
2022-08-21T21:02:55.368Z,6.53
2022-08-21T21:05:28.489Z,6.35
2022-08-21T21:08:11.809Z,6.50
2022-08-21T21:10:44.812Z,6.53
2022-08-21T21:13:31.163Z,6.22
2022-08-21T21:16:27.790Z,6.30
2022-08-21T21:18:59.202Z,6.03
2022-08-21T21:21:33.301Z,6.60
2022-08-21T21:24:04.731Z,6.55
2022-08-21T21:26:35.454Z,6.20
2022-08-21T21:29:05.150Z,6.68
2022-08-21T21:31:37.099Z,6.55
2022-08-21T21:34:04.261Z,6.93
2022-08-21T21:36:37.772Z,7.55
2022-08-21T21:39:14.276Z,6.70
2022-08-21T21:41:54.338Z,7.03
2022-08-21T21:44:33.734Z,7.78
2022-08-21T21:47:26.309Z,8.23
2022-08-21T21:50:01.806Z,8.68
2022-08-21T21:52:43.983Z,7.50
2022-08-21T21:58:24.760Z,8.48
2022-08-21T22:00:55.620Z,7.63
2022-08-21T22:03:25.991Z,8.80
2022-08-21T22:06:01.220Z,8.68
2022-08-21T22:08:38.542Z,8.13
2022-08-21T22:11:23.936Z,8.68
2022-08-21T22:13:56.843Z,8.50
2022-08-21T22:16:24.308Z,9.05
2022-08-21T22:18:55.457Z,9.13
2022-08-21T22:21:25.665Z,7.70
2022-08-21T22:23:54.513Z,7.75
2022-08-21T22:26:26.553Z,8.50
2022-08-21T22:28:54.885Z,7.25
2022-08-21T22:31:27.579Z,8.43
2022-08-21T22:34:02.571Z,8.02
2022-08-21T22:36:34.413Z,8.50
2022-08-21T22:39:03.626Z,8.57
2022-08-21T22:41:32.243Z,8.68
2022-08-21T22:44:02.400Z,7.97
2022-08-21T22:46:48.263Z,8.32
2022-08-21T22:49:25.418Z,8.18
2022-08-21T22:51:56.005Z,8.75
2022-08-21T22:54:25.678Z,8.75
2022-08-21T22:57:03.324Z,8.38
2022-08-21T22:59:34.867Z,8.63
2022-08-21T23:02:27.653Z,8.63
2022-08-21T23:04:57.797Z,9.27
2022-08-21T23:07:55.431Z,8.50
2022-08-21T23:10:26.174Z,9.55
2022-08-21T23:12:59.069Z,9.02
2022-08-21T23:15:28.300Z,8.93
2022-08-21T23:17:55.569Z,9.85
2022-08-21T23:20:25.615Z,9.32
2022-08-21T23:22:59.434Z,10.43
2022-08-21T23:25:38.562Z,9.60
2022-08-21T23:28:27.785Z,10.45
2022-08-21T23:30:54.976Z,9.52
2022-08-21T23:33:36.365Z,9.25
2022-08-21T23:36:27.534Z,9.52
2022-08-21T23:39:05.065Z,9.38
2022-08-21T23:41:51.357Z,9.40
2022-08-21T23:44:25.617Z,10.32
2022-08-21T23:47:03.654Z,11.02
2022-08-21T23:49:53.788Z,10.98
2022-08-21T23:52:24.310Z,9.43
2022-08-21T23:55:07.747Z,10.02
2022-08-21T23:57:38.369Z,10.40
